sensor_id;sensor_type;location;lat;lon;timestamp;P1;durP1;ratioP1;P2;durP2;ratioP2
79611;SDS011;69094;48.154;11.536;2023-05-07T00:00:08;10.27;;;7.13;;
79611;SDS011;69094;48.154;11.536;2023-05-07T00:02:34;8.75;;;6.13;;
79611;SDS011;69094;48.154;11.536;2023-05-07T00:05:00;14.65;;;6.72;;
79611;SDS011;69094;48.154;11.536;2023-05-07T00:07:27;12.27;;;6.80;;
79611;SDS011;69094;48.154;11.536;2023-05-07T00:09:52;10.50;;;6.20;;
79611;SDS011;69094;48.154;11.536;2023-05-07T00:12:18;9.67;;;6.40;;
79611;SDS011;69094;48.154;11.536;2023-05-07T00:14:43;9.88;;;6.53;;
79611;SDS011;69094;48.154;11.536;2023-05-07T00:17:08;11.77;;;7.07;;
79611;SDS011;69094;48.154;11.536;2023-05-07T00:19:34;13.10;;;7.35;;
79611;SDS011;69094;48.154;11.536;2023-05-07T00:21:59;13.13;;;7.43;;
79611;SDS011;69094;48.154;11.536;2023-05-07T00:24:25;14.25;;;7.15;;
79611;SDS011;69094;48.154;11.536;2023-05-07T00:26:50;14.07;;;7.30;;
79611;SDS011;69094;48.154;11.536;2023-05-07T00:29:16;13.25;;;6.82;;
79611;SDS011;69094;48.154;11.536;2023-05-07T00:31:41;11.73;;;6.73;;
79611;SDS011;69094;48.154;11.536;2023-05-07T00:34:06;11.17;;;7.47;;
79611;SDS011;69094;48.154;11.536;2023-05-07T00:36:32;12.83;;;8.20;;
79611;SDS011;69094;48.154;11.536;2023-05-07T00:38:59;12.27;;;7.13;;
79611;SDS011;69094;48.154;11.536;2023-05-07T00:41:25;13.23;;;7.85;;
79611;SDS011;69094;48.154;11.536;2023-05-07T00:43:51;11.75;;;7.25;;
79611;SDS011;69094;48.154;11.536;2023-05-07T00:46:17;13.20;;;8.18;;
79611;SDS011;69094;48.154;11.536;2023-05-07T00:48:45;14.40;;;7.60;;
79611;SDS011;69094;48.154;11.536;2023-05-07T00:51:10;10.90;;;7.28;;
79611;SDS011;69094;48.154;11.536;2023-05-07T00:53:36;10.27;;;7.05;;
79611;SDS011;69094;48.154;11.536;2023-05-07T00:56:02;13.63;;;7.95;;
79611;SDS011;69094;48.154;11.536;2023-05-07T00:58:29;10.50;;;7.07;;
79611;SDS011;69094;48.154;11.536;2023-05-07T01:00:55;11.50;;;7.57;;
79611;SDS011;69094;48.154;11.536;2023-05-07T01:03:20;15.05;;;8.48;;
79611;SDS011;69094;48.154;11.536;2023-05-07T01:05:46;12.38;;;7.25;;
79611;SDS011;69094;48.154;11.536;2023-05-07T01:08:13;15.77;;;7.60;;
79611;SDS011;69094;48.154;11.536;2023-05-07T01:10:40;19.65;;;8.00;;
79611;SDS011;69094;48.154;11.536;2023-05-07T01:13:08;10.63;;;7.82;;
79611;SDS011;69094;48.154;11.536;2023-05-07T01:15:35;16.20;;;8.50;;
79611;SDS011;69094;48.154;11.536;2023-05-07T01:18:00;13.07;;;8.05;;
79611;SDS011;69094;48.154;11.536;2023-05-07T01:20:26;12.30;;;8.15;;
79611;SDS011;69094;48.154;11.536;2023-05-07T01:22:53;13.75;;;7.68;;
79611;SDS011;69094;48.154;11.536;2023-05-07T01:25:19;14.77;;;7.88;;
79611;SDS011;69094;48.154;11.536;2023-05-07T01:27:44;12.77;;;8.15;;
79611;SDS011;69094;48.154;11.536;2023-05-07T01:30:10;12.02;;;7.72;;
79611;SDS011;69094;48.154;11.536;2023-05-07T01:35:16;13.65;;;7.93;;
79611;SDS011;69094;48.154;11.536;2023-05-07T01:37:48;13.05;;;8.15;;
79611;SDS011;69094;48.154;11.536;2023-05-07T01:40:14;13.55;;;8.00;;
79611;SDS011;69094;48.154;11.536;2023-05-07T01:42:40;13.48;;;7.95;;
79611;SDS011;69094;48.154;11.536;2023-05-07T01:45:08;12.15;;;7.97;;
79611;SDS011;69094;48.154;11.536;2023-05-07T01:47:33;12.77;;;7.72;;
79611;SDS011;69094;48.154;11.536;2023-05-07T01:50:00;11.40;;;7.78;;
79611;SDS011;69094;48.154;11.536;2023-05-07T01:52:27;10.85;;;7.40;;
79611;SDS011;69094;48.154;11.536;2023-05-07T01:54:52;14.70;;;7.47;;
79611;SDS011;69094;48.154;11.536;2023-05-07T01:57:18;10.37;;;7.63;;
79611;SDS011;69094;48.154;11.536;2023-05-07T01:59:43;13.13;;;7.88;;
79611;SDS011;69094;48.154;11.536;2023-05-07T02:02:08;11.97;;;7.37;;
79611;SDS011;69094;48.154;11.536;2023-05-07T02:04:34;13.67;;;7.80;;
79611;SDS011;69094;48.154;11.536;2023-05-07T02:07:00;12.05;;;7.63;;
79611;SDS011;69094;48.154;11.536;2023-05-07T02:09:25;12.20;;;7.38;;
79611;SDS011;69094;48.154;11.536;2023-05-07T02:11:50;9.75;;;7.05;;
79611;SDS011;69094;48.154;11.536;2023-05-07T02:14:16;12.50;;;7.37;;
79611;SDS011;69094;48.154;11.536;2023-05-07T02:16:41;10.45;;;7.15;;
79611;SDS011;69094;48.154;11.536;2023-05-07T02:19:07;10.43;;;6.72;;
79611;SDS011;69094;48.154;11.536;2023-05-07T02:21:32;10.05;;;6.45;;
79611;SDS011;69094;48.154;11.536;2023-05-07T02:23:57;12.87;;;7.33;;
79611;SDS011;69094;48.154;11.536;2023-05-07T02:26:23;11.67;;;7.73;;
79611;SDS011;69094;48.154;11.536;2023-05-07T02:28:48;11.37;;;7.73;;
79611;SDS011;69094;48.154;11.536;2023-05-07T02:31:13;11.13;;;6.82;;
79611;SDS011;69094;48.154;11.536;2023-05-07T02:33:39;11.77;;;7.32;;
79611;SDS011;69094;48.154;11.536;2023-05-07T02:36:05;11.50;;;6.73;;
79611;SDS011;69094;48.154;11.536;2023-05-07T02:38:31;10.32;;;6.70;;
79611;SDS011;69094;48.154;11.536;2023-05-07T02:40:57;11.30;;;6.80;;
79611;SDS011;69094;48.154;11.536;2023-05-07T02:43:22;10.90;;;6.87;;
79611;SDS011;69094;48.154;11.536;2023-05-07T02:45:47;11.30;;;7.13;;
79611;SDS011;69094;48.154;11.536;2023-05-07T02:48:13;10.40;;;7.10;;
79611;SDS011;69094;48.154;11.536;2023-05-07T02:50:38;11.03;;;7.37;;
79611;SDS011;69094;48.154;11.536;2023-05-07T02:53:03;11.47;;;7.43;;
79611;SDS011;69094;48.154;11.536;2023-05-07T02:55:29;11.13;;;6.93;;
79611;SDS011;69094;48.154;11.536;2023-05-07T02:57:55;9.23;;;6.70;;
79611;SDS011;69094;48.154;11.536;2023-05-07T03:00:20;9.18;;;6.97;;
79611;SDS011;69094;48.154;11.536;2023-05-07T03:02:46;11.63;;;7.38;;
79611;SDS011;69094;48.154;11.536;2023-05-07T03:05:11;12.00;;;7.40;;
79611;SDS011;69094;48.154;11.536;2023-05-07T03:07:37;14.20;;;6.70;;
79611;SDS011;69094;48.154;11.536;2023-05-07T03:10:03;11.88;;;7.05;;
79611;SDS011;69094;48.154;11.536;2023-05-07T03:12:30;9.23;;;6.60;;
79611;SDS011;69094;48.154;11.536;2023-05-07T03:14:56;9.82;;;6.03;;
79611;SDS011;69094;48.154;11.536;2023-05-07T03:17:21;8.03;;;6.27;;
79611;SDS011;69094;48.154;11.536;2023-05-07T03:19:46;8.93;;;5.80;;
79611;SDS011;69094;48.154;11.536;2023-05-07T03:22:12;9.03;;;6.10;;
79611;SDS011;69094;48.154;11.536;2023-05-07T03:24:37;10.55;;;6.40;;
79611;SDS011;69094;48.154;11.536;2023-05-07T03:27:02;13.13;;;6.37;;
79611;SDS011;69094;48.154;11.536;2023-05-07T03:29:28;7.80;;;5.82;;
79611;SDS011;69094;48.154;11.536;2023-05-07T03:31:53;14.80;;;7.60;;
79611;SDS011;69094;48.154;11.536;2023-05-07T03:34:19;10.85;;;6.38;;
79611;SDS011;69094;48.154;11.536;2023-05-07T03:36:47;9.90;;;6.00;;
79611;SDS011;69094;48.154;11.536;2023-05-07T03:39:13;8.75;;;6.10;;
79611;SDS011;69094;48.154;11.536;2023-05-07T03:41:38;10.67;;;6.53;;
79611;SDS011;69094;48.154;11.536;2023-05-07T03:44:04;9.30;;;6.20;;
79611;SDS011;69094;48.154;11.536;2023-05-07T03:46:29;7.80;;;5.97;;
79611;SDS011;69094;48.154;11.536;2023-05-07T03:48:54;10.10;;;6.40;;
79611;SDS011;69094;48.154;11.536;2023-05-07T03:51:20;9.40;;;6.50;;
79611;SDS011;69094;48.154;11.536;2023-05-07T03:53:45;8.43;;;6.57;;
79611;SDS011;69094;48.154;11.536;2023-05-07T03:56:11;10.27;;;6.60;;
79611;SDS011;69094;48.154;11.536;2023-05-07T03:58:36;8.75;;;5.95;;
79611;SDS011;69094;48.154;11.536;2023-05-07T04:01:01;9.30;;;6.77;;
79611;SDS011;69094;48.154;11.536;2023-05-07T04:03:27;10.05;;;6.63;;
79611;SDS011;69094;48.154;11.536;2023-05-07T04:05:53;11.57;;;6.70;;
79611;SDS011;69094;48.154;11.536;2023-05-07T04:08:18;11.70;;;7.60;;
79611;SDS011;69094;48.154;11.536;2023-05-07T04:10:43;11.73;;;6.27;;
79611;SDS011;69094;48.154;11.536;2023-05-07T04:13:09;10.97;;;6.43;;
79611;SDS011;69094;48.154;11.536;2023-05-07T04:15:35;9.02;;;6.53;;
79611;SDS011;69094;48.154;11.536;2023-05-07T04:18:01;11.95;;;5.88;;
79611;SDS011;69094;48.154;11.536;2023-05-07T04:20:26;9.07;;;6.20;;
79611;SDS011;69094;48.154;11.536;2023-05-07T04:22:52;9.87;;;6.37;;
79611;SDS011;69094;48.154;11.536;2023-05-07T04:25:17;10.00;;;6.00;;
79611;SDS011;69094;48.154;11.536;2023-05-07T04:27:42;9.47;;;6.07;;
79611;SDS011;69094;48.154;11.536;2023-05-07T04:30:08;8.00;;;5.63;;
79611;SDS011;69094;48.154;11.536;2023-05-07T04:32:33;9.40;;;6.38;;
79611;SDS011;69094;48.154;11.536;2023-05-07T04:34:58;9.60;;;5.70;;
79611;SDS011;69094;48.154;11.536;2023-05-07T04:37:25;11.87;;;6.50;;
79611;SDS011;69094;48.154;11.536;2023-05-07T04:39:51;9.70;;;5.47;;
79611;SDS011;69094;48.154;11.536;2023-05-07T04:42:17;8.10;;;5.30;;
79611;SDS011;69094;48.154;11.536;2023-05-07T04:44:45;8.65;;;6.03;;
79611;SDS011;69094;48.154;11.536;2023-05-07T04:47:11;10.15;;;5.55;;
79611;SDS011;69094;48.154;11.536;2023-05-07T04:49:37;10.50;;;6.00;;
79611;SDS011;69094;48.154;11.536;2023-05-07T04:52:03;7.72;;;4.75;;
79611;SDS011;69094;48.154;11.536;2023-05-07T04:54:29;7.20;;;4.60;;
79611;SDS011;69094;48.154;11.536;2023-05-07T04:56:54;7.77;;;5.30;;
79611;SDS011;69094;48.154;11.536;2023-05-07T04:59:20;9.07;;;5.00;;
79611;SDS011;69094;48.154;11.536;2023-05-07T05:01:45;6.40;;;4.57;;
79611;SDS011;69094;48.154;11.536;2023-05-07T05:04:10;7.03;;;5.40;;
79611;SDS011;69094;48.154;11.536;2023-05-07T05:06:36;7.25;;;5.18;;
79611;SDS011;69094;48.154;11.536;2023-05-07T05:09:01;10.00;;;4.80;;
79611;SDS011;69094;48.154;11.536;2023-05-07T05:11:26;6.17;;;4.90;;
79611;SDS011;69094;48.154;11.536;2023-05-07T05:13:52;7.57;;;5.03;;
79611;SDS011;69094;48.154;11.536;2023-05-07T05:16:17;9.87;;;4.80;;
79611;SDS011;69094;48.154;11.536;2023-05-07T05:18:42;8.60;;;5.07;;
79611;SDS011;69094;48.154;11.536;2023-05-07T05:21:08;5.93;;;4.50;;
79611;SDS011;69094;48.154;11.536;2023-05-07T05:23:33;8.33;;;5.00;;
79611;SDS011;69094;48.154;11.536;2023-05-07T05:25:59;4.67;;;4.10;;
79611;SDS011;69094;48.154;11.536;2023-05-07T05:28:24;6.97;;;4.13;;
79611;SDS011;69094;48.154;11.536;2023-05-07T05:30:49;6.13;;;4.30;;
79611;SDS011;69094;48.154;11.536;2023-05-07T05:33:15;6.90;;;4.45;;
79611;SDS011;69094;48.154;11.536;2023-05-07T05:35:41;7.63;;;5.32;;
79611;SDS011;69094;48.154;11.536;2023-05-07T05:38:07;7.25;;;5.15;;
79611;SDS011;69094;48.154;11.536;2023-05-07T05:40:32;7.13;;;5.27;;
79611;SDS011;69094;48.154;11.536;2023-05-07T05:42:58;7.50;;;5.05;;
79611;SDS011;69094;48.154;11.536;2023-05-07T05:45:24;9.48;;;5.60;;
79611;SDS011;69094;48.154;11.536;2023-05-07T05:47:49;7.97;;;5.63;;
79611;SDS011;69094;48.154;11.536;2023-05-07T05:50:15;7.90;;;5.03;;
79611;SDS011;69094;48.154;11.536;2023-05-07T05:52:40;8.48;;;4.95;;
79611;SDS011;69094;48.154;11.536;2023-05-07T05:55:06;6.53;;;4.57;;
79611;SDS011;69094;48.154;11.536;2023-05-07T05:57:31;8.88;;;5.05;;
79611;SDS011;69094;48.154;11.536;2023-05-07T05:59:57;4.97;;;4.38;;
79611;SDS011;69094;48.154;11.536;2023-05-07T06:02:22;7.70;;;4.88;;
79611;SDS011;69094;48.154;11.536;2023-05-07T06:04:48;8.13;;;4.70;;
79611;SDS011;69094;48.154;11.536;2023-05-07T06:07:13;7.75;;;4.90;;
79611;SDS011;69094;48.154;11.536;2023-05-07T06:09:39;7.93;;;5.00;;
79611;SDS011;69094;48.154;11.536;2023-05-07T06:12:04;7.85;;;5.03;;
79611;SDS011;69094;48.154;11.536;2023-05-07T06:14:30;8.20;;;5.00;;
79611;SDS011;69094;48.154;11.536;2023-05-07T06:16:56;8.03;;;5.00;;
79611;SDS011;69094;48.154;11.536;2023-05-07T06:19:21;6.93;;;4.63;;
79611;SDS011;69094;48.154;11.536;2023-05-07T06:21:48;6.75;;;4.63;;
79611;SDS011;69094;48.154;11.536;2023-05-07T06:24:14;11.00;;;5.15;;
79611;SDS011;69094;48.154;11.536;2023-05-07T06:26:39;6.97;;;5.20;;
79611;SDS011;69094;48.154;11.536;2023-05-07T06:29:05;9.00;;;4.47;;
79611;SDS011;69094;48.154;11.536;2023-05-07T06:31:31;6.75;;;4.40;;
79611;SDS011;69094;48.154;11.536;2023-05-07T06:33:57;7.18;;;4.43;;
79611;SDS011;69094;48.154;11.536;2023-05-07T06:36:22;6.65;;;4.30;;
79611;SDS011;69094;48.154;11.536;2023-05-07T06:38:48;8.90;;;4.80;;
79611;SDS011;69094;48.154;11.536;2023-05-07T06:41:13;6.77;;;4.47;;
79611;SDS011;69094;48.154;11.536;2023-05-07T06:43:38;4.83;;;3.60;;
79611;SDS011;69094;48.154;11.536;2023-05-07T06:46:04;4.05;;;3.10;;
79611;SDS011;69094;48.154;11.536;2023-05-07T06:48:30;6.70;;;3.78;;
79611;SDS011;69094;48.154;11.536;2023-05-07T06:50:55;6.05;;;4.03;;
79611;SDS011;69094;48.154;11.536;2023-05-07T06:53:22;5.45;;;3.13;;
79611;SDS011;69094;48.154;11.536;2023-05-07T06:55:48;4.85;;;3.33;;
79611;SDS011;69094;48.154;11.536;2023-05-07T06:58:13;4.70;;;3.40;;
79611;SDS011;69094;48.154;11.536;2023-05-07T07:00:39;5.03;;;3.57;;
79611;SDS011;69094;48.154;11.536;2023-05-07T07:03:05;4.75;;;3.28;;
79611;SDS011;69094;48.154;11.536;2023-05-07T07:05:31;5.57;;;3.78;;
79611;SDS011;69094;48.154;11.536;2023-05-07T07:07:56;4.13;;;3.40;;
79611;SDS011;69094;48.154;11.536;2023-05-07T07:10:22;4.10;;;3.37;;
79611;SDS011;69094;48.154;11.536;2023-05-07T07:12:48;3.83;;;3.10;;
79611;SDS011;69094;48.154;11.536;2023-05-07T07:15:14;5.40;;;3.17;;
79611;SDS011;69094;48.154;11.536;2023-05-07T07:17:40;5.55;;;3.42;;
79611;SDS011;69094;48.154;11.536;2023-05-07T07:20:06;6.47;;;3.47;;
79611;SDS011;69094;48.154;11.536;2023-05-07T07:22:32;3.90;;;3.10;;
79611;SDS011;69094;48.154;11.536;2023-05-07T07:24:57;5.63;;;3.95;;
79611;SDS011;69094;48.154;11.536;2023-05-07T07:27:22;15.60;;;9.60;;
79611;SDS011;69094;48.154;11.536;2023-05-07T07:29:48;6.90;;;4.82;;
79611;SDS011;69094;48.154;11.536;2023-05-07T07:32:13;6.13;;;3.90;;
79611;SDS011;69094;48.154;11.536;2023-05-07T07:34:38;4.72;;;3.35;;
79611;SDS011;69094;48.154;11.536;2023-05-07T07:37:04;6.68;;;3.40;;
79611;SDS011;69094;48.154;11.536;2023-05-07T07:39:34;8.35;;;3.58;;
79611;SDS011;69094;48.154;11.536;2023-05-07T07:44:27;5.30;;;3.30;;
79611;SDS011;69094;48.154;11.536;2023-05-07T07:46:53;8.10;;;3.20;;
79611;SDS011;69094;48.154;11.536;2023-05-07T07:49:18;4.10;;;3.27;;
79611;SDS011;69094;48.154;11.536;2023-05-07T07:51:44;4.18;;;3.28;;
79611;SDS011;69094;48.154;11.536;2023-05-07T07:54:09;3.45;;;3.15;;
79611;SDS011;69094;48.154;11.536;2023-05-07T07:56:35;3.92;;;3.03;;
79611;SDS011;69094;48.154;11.536;2023-05-07T07:59:00;6.57;;;2.97;;
79611;SDS011;69094;48.154;11.536;2023-05-07T08:01:26;3.58;;;3.25;;
79611;SDS011;69094;48.154;11.536;2023-05-07T08:03:52;5.82;;;3.63;;
79611;SDS011;69094;48.154;11.536;2023-05-07T08:06:17;5.05;;;3.60;;
79611;SDS011;69094;48.154;11.536;2023-05-07T08:08:43;4.05;;;3.20;;
79611;SDS011;69094;48.154;11.536;2023-05-07T08:11:09;5.28;;;3.30;;
79611;SDS011;69094;48.154;11.536;2023-05-07T08:13:34;3.60;;;3.30;;
79611;SDS011;69094;48.154;11.536;2023-05-07T08:16:00;5.90;;;3.33;;
79611;SDS011;69094;48.154;11.536;2023-05-07T08:18:25;9.60;;;4.20;;
79611;SDS011;69094;48.154;11.536;2023-05-07T08:20:53;5.40;;;3.42;;
79611;SDS011;69094;48.154;11.536;2023-05-07T08:23:18;4.43;;;3.40;;
79611;SDS011;69094;48.154;11.536;2023-05-07T08:25:44;4.50;;;3.20;;
79611;SDS011;69094;48.154;11.536;2023-05-07T08:28:09;3.10;;;2.80;;
79611;SDS011;69094;48.154;11.536;2023-05-07T08:30:35;3.47;;;2.63;;
79611;SDS011;69094;48.154;11.536;2023-05-07T08:33:00;3.63;;;2.70;;
79611;SDS011;69094;48.154;11.536;2023-05-07T08:35:25;4.63;;;2.80;;
79611;SDS011;69094;48.154;11.536;2023-05-07T08:37:52;4.45;;;3.10;;
79611;SDS011;69094;48.154;11.536;2023-05-07T08:40:17;2.60;;;2.28;;
79611;SDS011;69094;48.154;11.536;2023-05-07T08:42:43;4.40;;;3.10;;
79611;SDS011;69094;48.154;11.536;2023-05-07T08:45:10;4.18;;;3.30;;
79611;SDS011;69094;48.154;11.536;2023-05-07T08:47:40;3.97;;;2.72;;
79611;SDS011;69094;48.154;11.536;2023-05-07T08:50:10;3.30;;;2.80;;
79611;SDS011;69094;48.154;11.536;2023-05-07T08:52:36;3.88;;;2.92;;
79611;SDS011;69094;48.154;11.536;2023-05-07T08:55:02;5.72;;;3.40;;
79611;SDS011;69094;48.154;11.536;2023-05-07T08:57:28;5.35;;;3.35;;
79611;SDS011;69094;48.154;11.536;2023-05-07T08:59:53;6.40;;;3.10;;
79611;SDS011;69094;48.154;11.536;2023-05-07T09:02:18;2.88;;;2.38;;
79611;SDS011;69094;48.154;11.536;2023-05-07T09:04:44;2.95;;;2.67;;
79611;SDS011;69094;48.154;11.536;2023-05-07T09:07:09;3.90;;;3.42;;
79611;SDS011;69094;48.154;11.536;2023-05-07T09:09:35;3.80;;;2.43;;
79611;SDS011;69094;48.154;11.536;2023-05-07T09:12:00;3.73;;;2.80;;
79611;SDS011;69094;48.154;11.536;2023-05-07T09:14:27;4.78;;;2.50;;
79611;SDS011;69094;48.154;11.536;2023-05-07T09:16:52;4.85;;;2.47;;
79611;SDS011;69094;48.154;11.536;2023-05-07T09:19:25;3.33;;;2.05;;
79611;SDS011;69094;48.154;11.536;2023-05-07T09:22:01;4.82;;;2.60;;
79611;SDS011;69094;48.154;11.536;2023-05-07T09:24:28;3.90;;;2.60;;
79611;SDS011;69094;48.154;11.536;2023-05-07T09:26:57;4.72;;;3.10;;
79611;SDS011;69094;48.154;11.536;2023-05-07T09:29:23;12.85;;;3.17;;
79611;SDS011;69094;48.154;11.536;2023-05-07T09:31:48;4.70;;;2.33;;
79611;SDS011;69094;48.154;11.536;2023-05-07T09:34:13;2.80;;;2.43;;
79611;SDS011;69094;48.154;11.536;2023-05-07T09:36:39;4.03;;;2.55;;
79611;SDS011;69094;48.154;11.536;2023-05-07T09:39:04;2.97;;;2.40;;
79611;SDS011;69094;48.154;11.536;2023-05-07T09:41:30;3.15;;;1.73;;
79611;SDS011;69094;48.154;11.536;2023-05-07T09:43:59;4.38;;;2.25;;
79611;SDS011;69094;48.154;11.536;2023-05-07T09:46:27;3.75;;;2.90;;
79611;SDS011;69094;48.154;11.536;2023-05-07T09:48:56;5.60;;;2.75;;
79611;SDS011;69094;48.154;11.536;2023-05-07T09:51:56;3.08;;;2.78;;
79611;SDS011;69094;48.154;11.536;2023-05-07T09:54:16;3.55;;;2.38;;
79611;SDS011;69094;48.154;11.536;2023-05-07T09:56:43;4.13;;;1.92;;
79611;SDS011;69094;48.154;11.536;2023-05-07T09:59:11;6.75;;;2.78;;
79611;SDS011;69094;48.154;11.536;2023-05-07T10:01:38;3.92;;;2.20;;
79611;SDS011;69094;48.154;11.536;2023-05-07T10:04:07;3.10;;;2.70;;
79611;SDS011;69094;48.154;11.536;2023-05-07T10:06:35;3.53;;;2.85;;
79611;SDS011;69094;48.154;11.536;2023-05-07T10:09:02;4.75;;;2.33;;
79611;SDS011;69094;48.154;11.536;2023-05-07T10:11:30;3.90;;;2.60;;
79611;SDS011;69094;48.154;11.536;2023-05-07T10:13:57;5.35;;;2.92;;
79611;SDS011;69094;48.154;11.536;2023-05-07T10:16:22;3.25;;;2.10;;
79611;SDS011;69094;48.154;11.536;2023-05-07T10:18:49;5.80;;;2.53;;
79611;SDS011;69094;48.154;11.536;2023-05-07T10:21:19;5.93;;;2.40;;
79611;SDS011;69094;48.154;11.536;2023-05-07T10:23:50;2.60;;;1.83;;
79611;SDS011;69094;48.154;11.536;2023-05-07T10:26:18;3.88;;;1.83;;
79611;SDS011;69094;48.154;11.536;2023-05-07T10:28:48;4.03;;;3.08;;
79611;SDS011;69094;48.154;11.536;2023-05-07T10:31:33;3.70;;;2.70;;
79611;SDS011;69094;48.154;11.536;2023-05-07T10:34:10;2.97;;;2.13;;
79611;SDS011;69094;48.154;11.536;2023-05-07T10:36:38;4.05;;;2.60;;
79611;SDS011;69094;48.154;11.536;2023-05-07T10:39:04;2.85;;;2.15;;
79611;SDS011;69094;48.154;11.536;2023-05-07T10:41:30;4.38;;;2.03;;
79611;SDS011;69094;48.154;11.536;2023-05-07T10:43:56;2.08;;;1.63;;
79611;SDS011;69094;48.154;11.536;2023-05-07T10:46:21;3.90;;;2.10;;
79611;SDS011;69094;48.154;11.536;2023-05-07T10:51:28;6.85;;;4.20;;
79611;SDS011;69094;48.154;11.536;2023-05-07T10:56:44;3.75;;;2.30;;
79611;SDS011;69094;48.154;11.536;2023-05-07T11:02:04;2.63;;;2.33;;
79611;SDS011;69094;48.154;11.536;2023-05-07T11:04:32;3.97;;;2.30;;
79611;SDS011;69094;48.154;11.536;2023-05-07T11:13:03;4.45;;;2.88;;
79611;SDS011;69094;48.154;11.536;2023-05-07T11:15:04;5.28;;;2.15;;
79611;SDS011;69094;48.154;11.536;2023-05-07T11:17:31;4.32;;;2.45;;
79611;SDS011;69094;48.154;11.536;2023-05-07T11:19:59;4.40;;;2.67;;
79611;SDS011;69094;48.154;11.536;2023-05-07T11:25:04;4.32;;;2.53;;
79611;SDS011;69094;48.154;11.536;2023-05-07T11:27:30;4.57;;;2.42;;
79611;SDS011;69094;48.154;11.536;2023-05-07T11:29:56;6.60;;;2.92;;
79611;SDS011;69094;48.154;11.536;2023-05-07T11:32:22;3.90;;;2.40;;
79611;SDS011;69094;48.154;11.536;2023-05-07T11:34:52;4.32;;;2.70;;
79611;SDS011;69094;48.154;11.536;2023-05-07T11:37:19;3.67;;;2.50;;
79611;SDS011;69094;48.154;11.536;2023-05-07T11:39:45;3.03;;;2.35;;
79611;SDS011;69094;48.154;11.536;2023-05-07T11:42:28;2.53;;;2.17;;
79611;SDS011;69094;48.154;11.536;2023-05-07T11:44:59;3.22;;;2.60;;
79611;SDS011;69094;48.154;11.536;2023-05-07T11:47:25;3.65;;;2.20;;
79611;SDS011;69094;48.154;11.536;2023-05-07T11:49:51;15.32;;;9.55;;
79611;SDS011;69094;48.154;11.536;2023-05-07T11:52:18;7.10;;;4.25;;
79611;SDS011;69094;48.154;11.536;2023-05-07T11:54:48;4.25;;;2.70;;
79611;SDS011;69094;48.154;11.536;2023-05-07T11:57:18;4.82;;;2.00;;
79611;SDS011;69094;48.154;11.536;2023-05-07T11:59:43;2.90;;;2.30;;
79611;SDS011;69094;48.154;11.536;2023-05-07T12:02:14;4.43;;;2.20;;
79611;SDS011;69094;48.154;11.536;2023-05-07T12:04:40;3.10;;;2.33;;
79611;SDS011;69094;48.154;11.536;2023-05-07T12:07:13;4.10;;;2.97;;
79611;SDS011;69094;48.154;11.536;2023-05-07T12:09:39;4.88;;;2.28;;
79611;SDS011;69094;48.154;11.536;2023-05-07T12:12:06;3.00;;;2.17;;
79611;SDS011;69094;48.154;11.536;2023-05-07T12:14:31;5.68;;;3.78;;
79611;SDS011;69094;48.154;11.536;2023-05-07T12:16:57;4.05;;;2.28;;
79611;SDS011;69094;48.154;11.536;2023-05-07T12:19:27;3.03;;;1.90;;
79611;SDS011;69094;48.154;11.536;2023-05-07T12:21:53;4.45;;;2.13;;
79611;SDS011;69094;48.154;11.536;2023-05-07T12:24:19;3.45;;;2.50;;
79611;SDS011;69094;48.154;11.536;2023-05-07T12:26:44;4.25;;;2.55;;
79611;SDS011;69094;48.154;11.536;2023-05-07T12:29:10;3.78;;;2.10;;
79611;SDS011;69094;48.154;11.536;2023-05-07T12:31:35;3.55;;;2.72;;
79611;SDS011;69094;48.154;11.536;2023-05-07T12:34:00;4.20;;;2.70;;
79611;SDS011;69094;48.154;11.536;2023-05-07T12:36:27;2.75;;;2.53;;
79611;SDS011;69094;48.154;11.536;2023-05-07T12:39:01;4.35;;;2.47;;
79611;SDS011;69094;48.154;11.536;2023-05-07T12:41:30;4.82;;;2.38;;
79611;SDS011;69094;48.154;11.536;2023-05-07T12:43:56;5.47;;;2.57;;
79611;SDS011;69094;48.154;11.536;2023-05-07T12:46:22;3.35;;;2.30;;
79611;SDS011;69094;48.154;11.536;2023-05-07T12:48:48;5.28;;;2.40;;
79611;SDS011;69094;48.154;11.536;2023-05-07T12:51:14;2.95;;;2.40;;
79611;SDS011;69094;48.154;11.536;2023-05-07T12:53:40;4.40;;;2.53;;
79611;SDS011;69094;48.154;11.536;2023-05-07T12:56:09;4.65;;;2.50;;
79611;SDS011;69094;48.154;11.536;2023-05-07T12:58:35;3.83;;;2.28;;
79611;SDS011;69094;48.154;11.536;2023-05-07T13:01:04;5.85;;;2.33;;
79611;SDS011;69094;48.154;11.536;2023-05-07T13:03:34;3.15;;;2.20;;
79611;SDS011;69094;48.154;11.536;2023-05-07T13:06:04;4.43;;;2.70;;
79611;SDS011;69094;48.154;11.536;2023-05-07T13:08:35;2.90;;;2.13;;
79611;SDS011;69094;48.154;11.536;2023-05-07T13:11:06;3.85;;;2.30;;
79611;SDS011;69094;48.154;11.536;2023-05-07T13:13:34;2.35;;;1.90;;
79611;SDS011;69094;48.154;11.536;2023-05-07T13:16:00;3.83;;;2.03;;
79611;SDS011;69094;48.154;11.536;2023-05-07T13:18:27;2.92;;;1.90;;
79611;SDS011;69094;48.154;11.536;2023-05-07T13:20:54;2.70;;;1.80;;
79611;SDS011;69094;48.154;11.536;2023-05-07T13:23:20;4.05;;;1.90;;
79611;SDS011;69094;48.154;11.536;2023-05-07T13:25:45;3.38;;;1.90;;
79611;SDS011;69094;48.154;11.536;2023-05-07T13:28:11;4.28;;;1.90;;
79611;SDS011;69094;48.154;11.536;2023-05-07T13:30:37;3.53;;;1.70;;
79611;SDS011;69094;48.154;11.536;2023-05-07T13:33:03;2.20;;;1.73;;
79611;SDS011;69094;48.154;11.536;2023-05-07T13:35:28;4.85;;;2.30;;
79611;SDS011;69094;48.154;11.536;2023-05-07T13:37:54;2.75;;;1.83;;
79611;SDS011;69094;48.154;11.536;2023-05-07T13:40:21;2.45;;;2.03;;
79611;SDS011;69094;48.154;11.536;2023-05-07T13:42:47;3.33;;;1.80;;
79611;SDS011;69094;48.154;11.536;2023-05-07T13:45:12;3.35;;;2.40;;
79611;SDS011;69094;48.154;11.536;2023-05-07T13:47:39;2.78;;;1.98;;
79611;SDS011;69094;48.154;11.536;2023-05-07T13:50:06;1.80;;;1.60;;
79611;SDS011;69094;48.154;11.536;2023-05-07T13:52:32;6.63;;;2.30;;
79611;SDS011;69094;48.154;11.536;2023-05-07T13:54:57;2.30;;;2.10;;
79611;SDS011;69094;48.154;11.536;2023-05-07T13:57:23;3.50;;;2.10;;
79611;SDS011;69094;48.154;11.536;2023-05-07T13:59:49;2.43;;;2.23;;
79611;SDS011;69094;48.154;11.536;2023-05-07T14:02:14;3.47;;;2.03;;
79611;SDS011;69094;48.154;11.536;2023-05-07T14:04:40;4.40;;;2.33;;
79611;SDS011;69094;48.154;11.536;2023-05-07T14:07:05;3.53;;;2.47;;
79611;SDS011;69094;48.154;11.536;2023-05-07T14:09:31;2.45;;;1.85;;
79611;SDS011;69094;48.154;11.536;2023-05-07T14:11:56;5.35;;;2.20;;
79611;SDS011;69094;48.154;11.536;2023-05-07T14:14:21;4.22;;;2.17;;
79611;SDS011;69094;48.154;11.536;2023-05-07T14:16:47;2.60;;;2.00;;
79611;SDS011;69094;48.154;11.536;2023-05-07T14:19:12;3.70;;;2.20;;
79611;SDS011;69094;48.154;11.536;2023-05-07T14:21:37;2.73;;;2.20;;
79611;SDS011;69094;48.154;11.536;2023-05-07T14:24:03;3.78;;;2.75;;
79611;SDS011;69094;48.154;11.536;2023-05-07T14:26:30;3.72;;;2.10;;
79611;SDS011;69094;48.154;11.536;2023-05-07T14:28:56;2.55;;;2.00;;
79611;SDS011;69094;48.154;11.536;2023-05-07T14:31:23;4.22;;;2.30;;
79611;SDS011;69094;48.154;11.536;2023-05-07T14:33:48;4.03;;;2.33;;
79611;SDS011;69094;48.154;11.536;2023-05-07T14:36:15;3.17;;;2.30;;
79611;SDS011;69094;48.154;11.536;2023-05-07T14:38:47;3.60;;;2.55;;
79611;SDS011;69094;48.154;11.536;2023-05-07T14:41:13;5.85;;;3.00;;
79611;SDS011;69094;48.154;11.536;2023-05-07T14:43:39;2.83;;;2.50;;
79611;SDS011;69094;48.154;11.536;2023-05-07T14:46:04;4.20;;;2.40;;